sensor_id;sensor_type;location;lat;lon;timestamp;P1;durP1;ratioP1;P2;durP2;ratioP2
68319;SDS011;55168;51.120;17.024;2023-07-09T00:00:00;14.1;;;12.3;;
68319;SDS011;55168;51.120;17.024;2023-07-09T00:01:00;13.2;;;11.6;;
68319;SDS011;55168;51.120;17.024;2023-07-09T00:02:00;13.2;;;11.6;;
68319;SDS011;55168;51.120;17.024;2023-07-09T00:03:00;13.2;;;11.6;;
68319;SDS011;55168;51.120;17.024;2023-07-09T00:04:00;13.2;;;11.6;;
68319;SDS011;55168;51.120;17.024;2023-07-09T00:05:00;13.2;;;11.6;;
68319;SDS011;55168;51.120;17.024;2023-07-09T00:06:00;16.4;;;11.9;;
68319;SDS011;55168;51.120;17.024;2023-07-09T00:07:03;16.4;;;11.9;;
68319;SDS011;55168;51.120;17.024;2023-07-09T00:08:00;16.4;;;11.9;;
68319;SDS011;55168;51.120;17.024;2023-07-09T00:09:00;16.4;;;11.9;;
68319;SDS011;55168;51.120;17.024;2023-07-09T00:10:00;16.4;;;11.9;;
68319;SDS011;55168;51.120;17.024;2023-07-09T00:11:00;15.3;;;11.5;;
68319;SDS011;55168;51.120;17.024;2023-07-09T00:12:00;15.3;;;11.5;;
68319;SDS011;55168;51.120;17.024;2023-07-09T00:13:00;15.3;;;11.5;;
68319;SDS011;55168;51.120;17.024;2023-07-09T00:14:00;15.3;;;11.5;;
68319;SDS011;55168;51.120;17.024;2023-07-09T00:15:00;15.3;;;11.5;;
68319;SDS011;55168;51.120;17.024;2023-07-09T00:16:01;12.2;;;10.9;;
68319;SDS011;55168;51.120;17.024;2023-07-09T00:17:01;12.2;;;10.9;;
68319;SDS011;55168;51.120;17.024;2023-07-09T00:18:00;12.2;;;10.9;;
68319;SDS011;55168;51.120;17.024;2023-07-09T00:19:00;12.2;;;10.9;;
68319;SDS011;55168;51.120;17.024;2023-07-09T00:20:00;12.2;;;10.9;;
68319;SDS011;55168;51.120;17.024;2023-07-09T00:21:00;12.5;;;10.8;;
68319;SDS011;55168;51.120;17.024;2023-07-09T00:22:00;12.5;;;10.8;;
68319;SDS011;55168;51.120;17.024;2023-07-09T00:23:00;12.5;;;10.8;;
68319;SDS011;55168;51.120;17.024;2023-07-09T00:24:00;12.5;;;10.8;;
68319;SDS011;55168;51.120;17.024;2023-07-09T00:25:00;12.5;;;10.8;;
68319;SDS011;55168;51.120;17.024;2023-07-09T00:26:00;14.0;;;10.9;;
68319;SDS011;55168;51.120;17.024;2023-07-09T00:27:00;14.0;;;10.9;;
68319;SDS011;55168;51.120;17.024;2023-07-09T00:28:00;14.0;;;10.9;;
68319;SDS011;55168;51.120;17.024;2023-07-09T00:29:00;14.0;;;10.9;;
68319;SDS011;55168;51.120;17.024;2023-07-09T00:30:00;14.0;;;10.9;;
68319;SDS011;55168;51.120;17.024;2023-07-09T00:31:00;14.4;;;10.6;;
68319;SDS011;55168;51.120;17.024;2023-07-09T00:32:00;14.4;;;10.6;;
68319;SDS011;55168;51.120;17.024;2023-07-09T00:33:00;14.4;;;10.6;;
68319;SDS011;55168;51.120;17.024;2023-07-09T00:34:00;14.4;;;10.6;;
68319;SDS011;55168;51.120;17.024;2023-07-09T00:35:00;14.4;;;10.6;;
68319;SDS011;55168;51.120;17.024;2023-07-09T00:36:00;16.5;;;11.3;;
68319;SDS011;55168;51.120;17.024;2023-07-09T00:37:00;16.5;;;11.3;;
68319;SDS011;55168;51.120;17.024;2023-07-09T00:38:00;16.5;;;11.3;;
68319;SDS011;55168;51.120;17.024;2023-07-09T00:39:00;16.5;;;11.3;;
68319;SDS011;55168;51.120;17.024;2023-07-09T00:40:00;16.5;;;11.3;;
68319;SDS011;55168;51.120;17.024;2023-07-09T00:41:04;12.5;;;11.1;;
68319;SDS011;55168;51.120;17.024;2023-07-09T00:42:00;12.5;;;11.1;;
68319;SDS011;55168;51.120;17.024;2023-07-09T00:43:00;12.5;;;11.1;;
68319;SDS011;55168;51.120;17.024;2023-07-09T00:45:00;12.5;;;11.1;;
68319;SDS011;55168;51.120;17.024;2023-07-09T00:48:02;12.9;;;10.9;;
68319;SDS011;55168;51.120;17.024;2023-07-09T00:49:02;12.9;;;10.9;;
68319;SDS011;55168;51.120;17.024;2023-07-09T00:51:00;13.8;;;10.3;;
68319;SDS011;55168;51.120;17.024;2023-07-09T00:52:05;13.8;;;10.3;;
68319;SDS011;55168;51.120;17.024;2023-07-09T00:53:10;13.8;;;10.3;;
68319;SDS011;55168;51.120;17.024;2023-07-09T00:54:05;13.8;;;10.3;;
68319;SDS011;55168;51.120;17.024;2023-07-09T00:55:04;13.8;;;10.3;;
68319;SDS011;55168;51.120;17.024;2023-07-09T00:56:06;12.3;;;10.0;;
68319;SDS011;55168;51.120;17.024;2023-07-09T00:57:04;12.3;;;10.0;;
68319;SDS011;55168;51.120;17.024;2023-07-09T00:58:04;12.3;;;10.0;;
68319;SDS011;55168;51.120;17.024;2023-07-09T00:59:02;12.3;;;10.0;;
68319;SDS011;55168;51.120;17.024;2023-07-09T01:00:05;12.3;;;10.0;;
68319;SDS011;55168;51.120;17.024;2023-07-09T01:01:03;12.0;;;10.4;;
68319;SDS011;55168;51.120;17.024;2023-07-09T01:02:00;12.0;;;10.4;;
68319;SDS011;55168;51.120;17.024;2023-07-09T01:03:00;12.0;;;10.4;;
68319;SDS011;55168;51.120;17.024;2023-07-09T01:04:02;12.0;;;10.4;;
68319;SDS011;55168;51.120;17.024;2023-07-09T01:05:01;12.0;;;10.4;;
68319;SDS011;55168;51.120;17.024;2023-07-09T01:06:00;12.0;;;10.5;;
68319;SDS011;55168;51.120;17.024;2023-07-09T01:07:00;12.0;;;10.5;;
68319;SDS011;55168;51.120;17.024;2023-07-09T01:08:00;12.0;;;10.5;;
68319;SDS011;55168;51.120;17.024;2023-07-09T01:09:01;12.0;;;10.5;;
68319;SDS011;55168;51.120;17.024;2023-07-09T01:10:01;12.0;;;10.5;;
68319;SDS011;55168;51.120;17.024;2023-07-09T01:11:01;12.9;;;10.4;;
68319;SDS011;55168;51.120;17.024;2023-07-09T01:12:01;12.9;;;10.4;;
68319;SDS011;55168;51.120;17.024;2023-07-09T01:13:00;12.9;;;10.4;;
68319;SDS011;55168;51.120;17.024;2023-07-09T01:14:02;12.9;;;10.4;;
68319;SDS011;55168;51.120;17.024;2023-07-09T01:15:00;12.9;;;10.4;;
68319;SDS011;55168;51.120;17.024;2023-07-09T01:16:00;12.1;;;9.8;;
68319;SDS011;55168;51.120;17.024;2023-07-09T01:17:02;12.1;;;9.8;;
68319;SDS011;55168;51.120;17.024;2023-07-09T01:18:00;12.1;;;9.8;;
68319;SDS011;55168;51.120;17.024;2023-07-09T01:19:00;12.1;;;9.8;;
68319;SDS011;55168;51.120;17.024;2023-07-09T01:20:00;12.1;;;9.8;;
68319;SDS011;55168;51.120;17.024;2023-07-09T01:21:03;11.7;;;10.0;;
68319;SDS011;55168;51.120;17.024;2023-07-09T01:22:00;11.7;;;10.0;;
68319;SDS011;55168;51.120;17.024;2023-07-09T01:23:00;11.7;;;10.0;;
68319;SDS011;55168;51.120;17.024;2023-07-09T01:24:11;11.7;;;10.0;;
68319;SDS011;55168;51.120;17.024;2023-07-09T01:25:04;11.7;;;10.0;;
68319;SDS011;55168;51.120;17.024;2023-07-09T01:26:00;12.1;;;10.0;;
68319;SDS011;55168;51.120;17.024;2023-07-09T01:27:00;12.1;;;10.0;;
68319;SDS011;55168;51.120;17.024;2023-07-09T01:28:00;12.1;;;10.0;;
68319;SDS011;55168;51.120;17.024;2023-07-09T01:29:00;12.1;;;10.0;;
68319;SDS011;55168;51.120;17.024;2023-07-09T01:30:04;12.1;;;10.0;;
68319;SDS011;55168;51.120;17.024;2023-07-09T01:31:00;14.0;;;10.7;;
68319;SDS011;55168;51.120;17.024;2023-07-09T01:32:00;14.0;;;10.7;;
68319;SDS011;55168;51.120;17.024;2023-07-09T01:33:01;14.0;;;10.7;;
68319;SDS011;55168;51.120;17.024;2023-07-09T01:34:00;14.0;;;10.7;;
68319;SDS011;55168;51.120;17.024;2023-07-09T01:35:03;14.0;;;10.7;;
68319;SDS011;55168;51.120;17.024;2023-07-09T01:36:00;11.6;;;10.2;;
68319;SDS011;55168;51.120;17.024;2023-07-09T01:37:00;11.6;;;10.2;;
68319;SDS011;55168;51.120;17.024;2023-07-09T01:38:01;11.6;;;10.2;;
68319;SDS011;55168;51.120;17.024;2023-07-09T01:39:00;11.6;;;10.2;;
68319;SDS011;55168;51.120;17.024;2023-07-09T01:40:00;11.6;;;10.2;;
68319;SDS011;55168;51.120;17.024;2023-07-09T01:41:01;12.3;;;10.3;;
68319;SDS011;55168;51.120;17.024;2023-07-09T01:42:00;12.3;;;10.3;;
68319;SDS011;55168;51.120;17.024;2023-07-09T01:43:02;12.3;;;10.3;;
68319;SDS011;55168;51.120;17.024;2023-07-09T01:44:00;12.3;;;10.3;;
68319;SDS011;55168;51.120;17.024;2023-07-09T01:45:00;12.3;;;10.3;;
68319;SDS011;55168;51.120;17.024;2023-07-09T01:46:00;14.7;;;10.3;;
68319;SDS011;55168;51.120;17.024;2023-07-09T01:47:00;14.7;;;10.3;;
68319;SDS011;55168;51.120;17.024;2023-07-09T01:48:01;14.7;;;10.3;;
68319;SDS011;55168;51.120;17.024;2023-07-09T01:49:00;14.7;;;10.3;;
68319;SDS011;55168;51.120;17.024;2023-07-09T01:50:00;14.7;;;10.3;;
68319;SDS011;55168;51.120;17.024;2023-07-09T01:51:00;15.0;;;10.9;;
68319;SDS011;55168;51.120;17.024;2023-07-09T01:52:01;15.0;;;10.9;;
68319;SDS011;55168;51.120;17.024;2023-07-09T01:53:00;15.0;;;10.9;;
68319;SDS011;55168;51.120;17.024;2023-07-09T01:54:00;15.0;;;10.9;;
68319;SDS011;55168;51.120;17.024;2023-07-09T01:55:00;15.0;;;10.9;;
68319;SDS011;55168;51.120;17.024;2023-07-09T01:56:00;12.7;;;10.3;;
68319;SDS011;55168;51.120;17.024;2023-07-09T01:57:14;12.7;;;10.3;;
68319;SDS011;55168;51.120;17.024;2023-07-09T01:58:00;12.7;;;10.3;;
68319;SDS011;55168;51.120;17.024;2023-07-09T01:59:00;12.7;;;10.3;;
68319;SDS011;55168;51.120;17.024;2023-07-09T02:00:06;12.7;;;10.3;;
68319;SDS011;55168;51.120;17.024;2023-07-09T02:01:00;10.9;;;9.7;;
68319;SDS011;55168;51.120;17.024;2023-07-09T02:02:00;10.9;;;9.7;;
68319;SDS011;55168;51.120;17.024;2023-07-09T02:03:00;10.9;;;9.7;;
68319;SDS011;55168;51.120;17.024;2023-07-09T02:04:00;10.9;;;9.7;;
68319;SDS011;55168;51.120;17.024;2023-07-09T02:05:00;10.9;;;9.7;;
68319;SDS011;55168;51.120;17.024;2023-07-09T02:06:00;11.5;;;9.9;;
68319;SDS011;55168;51.120;17.024;2023-07-09T02:07:00;11.5;;;9.9;;
68319;SDS011;55168;51.120;17.024;2023-07-09T02:08:00;11.5;;;9.9;;
68319;SDS011;55168;51.120;17.024;2023-07-09T02:09:00;11.5;;;9.9;;
68319;SDS011;55168;51.120;17.024;2023-07-09T02:10:00;11.5;;;9.9;;
68319;SDS011;55168;51.120;17.024;2023-07-09T02:11:00;11.1;;;9.9;;
68319;SDS011;55168;51.120;17.024;2023-07-09T02:12:00;11.1;;;9.9;;
68319;SDS011;55168;51.120;17.024;2023-07-09T02:13:00;11.1;;;9.9;;
68319;SDS011;55168;51.120;17.024;2023-07-09T02:14:00;11.1;;;9.9;;
68319;SDS011;55168;51.120;17.024;2023-07-09T02:15:00;11.1;;;9.9;;
68319;SDS011;55168;51.120;17.024;2023-07-09T02:16:00;13.1;;;9.6;;
68319;SDS011;55168;51.120;17.024;2023-07-09T02:17:00;13.1;;;9.6;;
68319;SDS011;55168;51.120;17.024;2023-07-09T02:18:00;13.1;;;9.6;;
68319;SDS011;55168;51.120;17.024;2023-07-09T02:19:00;13.1;;;9.6;;
68319;SDS011;55168;51.120;17.024;2023-07-09T02:20:00;13.1;;;9.6;;
68319;SDS011;55168;51.120;17.024;2023-07-09T02:21:00;14.0;;;10.1;;
68319;SDS011;55168;51.120;17.024;2023-07-09T02:22:00;14.0;;;10.1;;
68319;SDS011;55168;51.120;17.024;2023-07-09T02:23:00;14.0;;;10.1;;
68319;SDS011;55168;51.120;17.024;2023-07-09T02:24:00;14.0;;;10.1;;
68319;SDS011;55168;51.120;17.024;2023-07-09T02:25:00;14.0;;;10.1;;
68319;SDS011;55168;51.120;17.024;2023-07-09T02:26:00;12.4;;;9.8;;
68319;SDS011;55168;51.120;17.024;2023-07-09T02:27:02;12.4;;;9.8;;
68319;SDS011;55168;51.120;17.024;2023-07-09T02:28:00;12.4;;;9.8;;
68319;SDS011;55168;51.120;17.024;2023-07-09T02:29:00;12.4;;;9.8;;
68319;SDS011;55168;51.120;17.024;2023-07-09T02:30:00;12.4;;;9.8;;
68319;SDS011;55168;51.120;17.024;2023-07-09T02:31:00;10.9;;;9.6;;
68319;SDS011;55168;51.120;17.024;2023-07-09T02:32:01;10.9;;;9.6;;
68319;SDS011;55168;51.120;17.024;2023-07-09T02:33:00;10.9;;;9.6;;
68319;SDS011;55168;51.120;17.024;2023-07-09T02:34:00;10.9;;;9.6;;
68319;SDS011;55168;51.120;17.024;2023-07-09T02:35:00;10.9;;;9.6;;
68319;SDS011;55168;51.120;17.024;2023-07-09T02:36:00;11.1;;;9.7;;
68319;SDS011;55168;51.120;17.024;2023-07-09T02:37:00;11.1;;;9.7;;
68319;SDS011;55168;51.120;17.024;2023-07-09T02:38:00;11.1;;;9.7;;
68319;SDS011;55168;51.120;17.024;2023-07-09T02:39:00;11.1;;;9.7;;
68319;SDS011;55168;51.120;17.024;2023-07-09T02:40:00;11.1;;;9.7;;
68319;SDS011;55168;51.120;17.024;2023-07-09T02:41:00;12.5;;;10.0;;
68319;SDS011;55168;51.120;17.024;2023-07-09T02:42:00;12.5;;;10.0;;
68319;SDS011;55168;51.120;17.024;2023-07-09T02:43:00;12.5;;;10.0;;
68319;SDS011;55168;51.120;17.024;2023-07-09T02:44:00;12.5;;;10.0;;
68319;SDS011;55168;51.120;17.024;2023-07-09T02:45:01;12.5;;;10.0;;
68319;SDS011;55168;51.120;17.024;2023-07-09T02:46:00;12.8;;;10.1;;
68319;SDS011;55168;51.120;17.024;2023-07-09T02:47:00;12.8;;;10.1;;
68319;SDS011;55168;51.120;17.024;2023-07-09T02:48:00;12.8;;;10.1;;
68319;SDS011;55168;51.120;17.024;2023-07-09T02:49:02;12.8;;;10.1;;
68319;SDS011;55168;51.120;17.024;2023-07-09T02:50:00;12.8;;;10.1;;
68319;SDS011;55168;51.120;17.024;2023-07-09T02:51:00;12.2;;;9.9;;
68319;SDS011;55168;51.120;17.024;2023-07-09T02:52:00;12.2;;;9.9;;
68319;SDS011;55168;51.120;17.024;2023-07-09T02:53:00;12.2;;;9.9;;
68319;SDS011;55168;51.120;17.024;2023-07-09T02:54:02;12.2;;;9.9;;
68319;SDS011;55168;51.120;17.024;2023-07-09T02:55:00;12.2;;;9.9;;
68319;SDS011;55168;51.120;17.024;2023-07-09T02:56:00;12.5;;;10.4;;
68319;SDS011;55168;51.120;17.024;2023-07-09T02:57:00;12.5;;;10.4;;
68319;SDS011;55168;51.120;17.024;2023-07-09T02:58:00;12.5;;;10.4;;
68319;SDS011;55168;51.120;17.024;2023-07-09T02:59:00;12.5;;;10.4;;
68319;SDS011;55168;51.120;17.024;2023-07-09T03:00:00;12.5;;;10.4;;
68319;SDS011;55168;51.120;17.024;2023-07-09T03:01:00;16.7;;;11.2;;
68319;SDS011;55168;51.120;17.024;2023-07-09T03:02:01;16.7;;;11.2;;
68319;SDS011;55168;51.120;17.024;2023-07-09T03:03:00;16.7;;;11.2;;
68319;SDS011;55168;51.120;17.024;2023-07-09T03:04:01;16.7;;;11.2;;
68319;SDS011;55168;51.120;17.024;2023-07-09T03:05:00;16.7;;;11.2;;
68319;SDS011;55168;51.120;17.024;2023-07-09T03:06:00;13.0;;;9.8;;
68319;SDS011;55168;51.120;17.024;2023-07-09T03:07:00;13.0;;;9.8;;
68319;SDS011;55168;51.120;17.024;2023-07-09T03:08:00;13.0;;;9.8;;
68319;SDS011;55168;51.120;17.024;2023-07-09T03:09:00;13.0;;;9.8;;
68319;SDS011;55168;51.120;17.024;2023-07-09T03:10:00;13.0;;;9.8;;
68319;SDS011;55168;51.120;17.024;2023-07-09T03:11:09;12.7;;;10.3;;
68319;SDS011;55168;51.120;17.024;2023-07-09T03:12:00;12.7;;;10.3;;
68319;SDS011;55168;51.120;17.024;2023-07-09T03:13:00;12.7;;;10.3;;
68319;SDS011;55168;51.120;17.024;2023-07-09T03:14:01;12.7;;;10.3;;
68319;SDS011;55168;51.120;17.024;2023-07-09T03:15:00;12.7;;;10.3;;
68319;SDS011;55168;51.120;17.024;2023-07-09T03:16:00;13.3;;;10.5;;
68319;SDS011;55168;51.120;17.024;2023-07-09T03:17:00;13.3;;;10.5;;
68319;SDS011;55168;51.120;17.024;2023-07-09T03:18:00;13.3;;;10.5;;
68319;SDS011;55168;51.120;17.024;2023-07-09T03:19:01;13.3;;;10.5;;
68319;SDS011;55168;51.120;17.024;2023-07-09T03:20:00;13.3;;;10.5;;
68319;SDS011;55168;51.120;17.024;2023-07-09T03:21:00;11.4;;;9.8;;
68319;SDS011;55168;51.120;17.024;2023-07-09T03:22:00;11.4;;;9.8;;
68319;SDS011;55168;51.120;17.024;2023-07-09T03:23:00;11.4;;;9.8;;
68319;SDS011;55168;51.120;17.024;2023-07-09T03:24:00;11.4;;;9.8;;
68319;SDS011;55168;51.120;17.024;2023-07-09T03:25:00;11.4;;;9.8;;
68319;SDS011;55168;51.120;17.024;2023-07-09T03:26:00;12.0;;;9.9;;
68319;SDS011;55168;51.120;17.024;2023-07-09T03:27:00;12.0;;;9.9;;
68319;SDS011;55168;51.120;17.024;2023-07-09T03:28:00;12.0;;;9.9;;
68319;SDS011;55168;51.120;17.024;2023-07-09T03:29:00;12.0;;;9.9;;
68319;SDS011;55168;51.120;17.024;2023-07-09T03:30:00;12.0;;;9.9;;
68319;SDS011;55168;51.120;17.024;2023-07-09T03:31:00;11.1;;;9.9;;
68319;SDS011;55168;51.120;17.024;2023-07-09T03:32:00;11.1;;;9.9;;
68319;SDS011;55168;51.120;17.024;2023-07-09T03:33:00;11.1;;;9.9;;
68319;SDS011;55168;51.120;17.024;2023-07-09T03:34:00;11.1;;;9.9;;
68319;SDS011;55168;51.120;17.024;2023-07-09T03:35:00;11.1;;;9.9;;
68319;SDS011;55168;51.120;17.024;2023-07-09T03:36:00;11.6;;;10.1;;
68319;SDS011;55168;51.120;17.024;2023-07-09T03:37:00;11.6;;;10.1;;
68319;SDS011;55168;51.120;17.024;2023-07-09T03:38:00;11.6;;;10.1;;
68319;SDS011;55168;51.120;17.024;2023-07-09T03:39:00;11.6;;;10.1;;
68319;SDS011;55168;51.120;17.024;2023-07-09T03:40:00;11.6;;;10.1;;
68319;SDS011;55168;51.120;17.024;2023-07-09T03:41:00;12.8;;;10.0;;
68319;SDS011;55168;51.120;17.024;2023-07-09T03:42:00;12.8;;;10.0;;
68319;SDS011;55168;51.120;17.024;2023-07-09T03:43:00;12.8;;;10.0;;
68319;SDS011;55168;51.120;17.024;2023-07-09T03:44:00;12.8;;;10.0;;
68319;SDS011;55168;51.120;17.024;2023-07-09T03:45:00;12.8;;;10.0;;
68319;SDS011;55168;51.120;17.024;2023-07-09T03:46:00;11.0;;;9.9;;
68319;SDS011;55168;51.120;17.024;2023-07-09T03:47:00;11.0;;;9.9;;
68319;SDS011;55168;51.120;17.024;2023-07-09T03:48:01;11.0;;;9.9;;
68319;SDS011;55168;51.120;17.024;2023-07-09T03:49:00;11.0;;;9.9;;
68319;SDS011;55168;51.120;17.024;2023-07-09T03:50:00;11.0;;;9.9;;
68319;SDS011;55168;51.120;17.024;2023-07-09T03:51:00;10.8;;;9.7;;
68319;SDS011;55168;51.120;17.024;2023-07-09T03:52:00;10.8;;;9.7;;
68319;SDS011;55168;51.120;17.024;2023-07-09T03:53:00;10.8;;;9.7;;
68319;SDS011;55168;51.120;17.024;2023-07-09T03:54:00;10.8;;;9.7;;
68319;SDS011;55168;51.120;17.024;2023-07-09T03:55:00;10.8;;;9.7;;
68319;SDS011;55168;51.120;17.024;2023-07-09T03:56:00;11.1;;;10.0;;
68319;SDS011;55168;51.120;17.024;2023-07-09T03:57:00;11.1;;;10.0;;
68319;SDS011;55168;51.120;17.024;2023-07-09T03:58:00;11.1;;;10.0;;
68319;SDS011;55168;51.120;17.024;2023-07-09T03:59:00;11.1;;;10.0;;
68319;SDS011;55168;51.120;17.024;2023-07-09T04:00:01;11.1;;;10.0;;
68319;SDS011;55168;51.120;17.024;2023-07-09T04:01:00;13.4;;;10.1;;
68319;SDS011;55168;51.120;17.024;2023-07-09T04:02:00;13.4;;;10.1;;
68319;SDS011;55168;51.120;17.024;2023-07-09T04:03:00;13.4;;;10.1;;
68319;SDS011;55168;51.120;17.024;2023-07-09T04:04:00;13.4;;;10.1;;
68319;SDS011;55168;51.120;17.024;2023-07-09T04:05:00;13.4;;;10.1;;
68319;SDS011;55168;51.120;17.024;2023-07-09T04:06:00;11.4;;;10.1;;
68319;SDS011;55168;51.120;17.024;2023-07-09T04:07:00;11.4;;;10.1;;
68319;SDS011;55168;51.120;17.024;2023-07-09T04:08:00;11.4;;;10.1;;
68319;SDS011;55168;51.120;17.024;2023-07-09T04:09:00;11.4;;;10.1;;
68319;SDS011;55168;51.120;17.024;2023-07-09T04:10:00;11.4;;;10.1;;
68319;SDS011;55168;51.120;17.024;2023-07-09T04:11:02;13.1;;;10.9;;
68319;SDS011;55168;51.120;17.024;2023-07-09T04:12:00;13.1;;;10.9;;
68319;SDS011;55168;51.120;17.024;2023-07-09T04:13:00;13.1;;;10.9;;
68319;SDS011;55168;51.120;17.024;2023-07-09T04:14:00;13.1;;;10.9;;
68319;SDS011;55168;51.120;17.024;2023-07-09T04:15:00;13.1;;;10.9;;
68319;SDS011;55168;51.120;17.024;2023-07-09T04:16:00;11.8;;;10.3;;
68319;SDS011;55168;51.120;17.024;2023-07-09T04:17:00;11.8;;;10.3;;
68319;SDS011;55168;51.120;17.024;2023-07-09T04:18:00;11.8;;;10.3;;
68319;SDS011;55168;51.120;17.024;2023-07-09T04:19:00;11.8;;;10.3;;
68319;SDS011;55168;51.120;17.024;2023-07-09T04:20:00;11.8;;;10.3;;
68319;SDS011;55168;51.120;17.024;2023-07-09T04:21:00;11.4;;;10.1;;
68319;SDS011;55168;51.120;17.024;2023-07-09T04:22:00;11.4;;;10.1;;
68319;SDS011;55168;51.120;17.024;2023-07-09T04:23:00;11.4;;;10.1;;
68319;SDS011;55168;51.120;17.024;2023-07-09T04:24:00;11.4;;;10.1;;
68319;SDS011;55168;51.120;17.024;2023-07-09T04:25:00;11.4;;;10.1;;
68319;SDS011;55168;51.120;17.024;2023-07-09T04:26:00;11.5;;;10.3;;
68319;SDS011;55168;51.120;17.024;2023-07-09T04:27:00;11.5;;;10.3;;
68319;SDS011;55168;51.120;17.024;2023-07-09T04:28:00;11.5;;;10.3;;
68319;SDS011;55168;51.120;17.024;2023-07-09T04:29:00;11.5;;;10.3;;
68319;SDS011;55168;51.120;17.024;2023-07-09T04:30:00;11.5;;;10.3;;
68319;SDS011;55168;51.120;17.024;2023-07-09T04:31:00;13.1;;;10.8;;
68319;SDS011;55168;51.120;17.024;2023-07-09T04:32:00;13.1;;;10.8;;
68319;SDS011;55168;51.120;17.024;2023-07-09T04:33:00;13.1;;;10.8;;
68319;SDS011;55168;51.120;17.024;2023-07-09T04:34:00;13.1;;;10.8;;
68319;SDS011;55168;51.120;17.024;2023-07-09T04:35:00;13.1;;;10.8;;
68319;SDS011;55168;51.120;17.024;2023-07-09T04:36:00;13.1;;;10.2;;
68319;SDS011;55168;51.120;17.024;2023-07-09T04:37:00;13.1;;;10.2;;
68319;SDS011;55168;51.120;17.024;2023-07-09T04:38:00;13.1;;;10.2;;
68319;SDS011;55168;51.120;17.024;2023-07-09T04:39:00;13.1;;;10.2;;
68319;SDS011;55168;51.120;17.024;2023-07-09T04:40:00;13.1;;;10.2;;
68319;SDS011;55168;51.120;17.024;2023-07-09T04:41:00;14.5;;;10.7;;
68319;SDS011;55168;51.120;17.024;2023-07-09T04:42:00;14.5;;;10.7;;
68319;SDS011;55168;51.120;17.024;2023-07-09T04:43:00;14.5;;;10.7;;
68319;SDS011;55168;51.120;17.024;2023-07-09T04:44:00;14.5;;;10.7;;
68319;SDS011;55168;51.120;17.024;2023-07-09T04:45:00;14.5;;;10.7;;
68319;SDS011;55168;51.120;17.024;2023-07-09T04:46:00;13.0;;;11.3;;
68319;SDS011;55168;51.120;17.024;2023-07-09T04:47:00;13.0;;;11.3;;
68319;SDS011;55168;51.120;17.024;2023-07-09T04:48:00;13.0;;;11.3;;
68319;SDS011;55168;51.120;17.024;2023-07-09T04:49:00;13.0;;;11.3;;
68319;SDS011;55168;51.120;17.024;2023-07-09T04:50:00;13.0;;;11.3;;
68319;SDS011;55168;51.120;17.024;2023-07-09T04:51:00;13.9;;;10.6;;
68319;SDS011;55168;51.120;17.024;2023-07-09T04:52:00;13.9;;;10.6;;
68319;SDS011;55168;51.120;17.024;2023-07-09T04:53:00;13.9;;;10.6;;
68319;SDS011;55168;51.120;17.024;2023-07-09T04:54:00;13.9;;;10.6;;
68319;SDS011;55168;51.120;17.024;2023-07-09T04:55:00;13.9;;;10.6;;
68319;SDS011;55168;51.120;17.024;2023-07-09T04:56:00;11.7;;;10.1;;
68319;SDS011;55168;51.120;17.024;2023-07-09T04:57:00;11.7;;;10.1;;
68319;SDS011;55168;51.120;17.024;2023-07-09T04:58:00;11.7;;;10.1;;
68319;SDS011;55168;51.120;17.024;2023-07-09T04:59:00;11.7;;;10.1;;
68319;SDS011;55168;51.120;17.024;2023-07-09T05:00:00;11.7;;;10.1;;
68319;SDS011;55168;51.120;17.024;2023-07-09T05:01:00;11.2;;;9.9;;
68319;SDS011;55168;51.120;17.024;2023-07-09T05:02:00;11.2;;;9.9;;
68319;SDS011;55168;51.120;17.024;2023-07-09T05:03:00;11.2;;;9.9;;
68319;SDS011;55168;51.120;17.024;2023-07-09T05:04:00;11.2;;;9.9;;
68319;SDS011;55168;51.120;17.024;2023-07-09T05:05:00;11.2;;;9.9;;
68319;SDS011;55168;51.120;17.024;2023-07-09T05:06:00;10.8;;;9.7;;
68319;SDS011;55168;51.120;17.024;2023-07-09T05:07:00;10.8;;;9.7;;
68319;SDS011;55168;51.120;17.024;2023-07-09T05:08:00;10.8;;;9.7;;
68319;SDS011;55168;51.120;17.024;2023-07-09T05:09:00;10.8;;;9.7;;
68319;SDS011;55168;51.120;17.024;2023-07-09T05:10:00;10.8;;;9.7;;
68319;SDS011;55168;51.120;17.024;2023-07-09T05:11:00;12.2;;;10.0;;
68319;SDS011;55168;51.120;17.024;2023-07-09T05:12:00;12.2;;;10.0;;
68319;SDS011;55168;51.120;17.024;2023-07-09T05:13:00;12.2;;;10.0;;
68319;SDS011;55168;51.120;17.024;2023-07-09T05:14:00;12.2;;;10.0;;
68319;SDS011;55168;51.120;17.024;2023-07-09T05:15:00;12.2;;;10.0;;
68319;SDS011;55168;51.120;17.024;2023-07-09T05:16:00;11.9;;;9.7;;
68319;SDS011;55168;51.120;17.024;2023-07-09T05:17:00;11.9;;;9.7;;
68319;SDS011;55168;51.120;17.024;2023-07-09T05:18:00;11.9;;;9.7;;
68319;SDS011;55168;51.120;17.024;2023-07-09T05:19:00;11.9;;;9.7;;
68319;SDS011;55168;51.120;17.024;2023-07-09T05:20:00;11.9;;;9.7;;
68319;SDS011;55168;51.120;17.024;2023-07-09T05:21:00;10.4;;;9.3;;
68319;SDS011;55168;51.120;17.024;2023-07-09T05:22:00;10.4;;;9.3;;
68319;SDS011;55168;51.120;17.024;2023-07-09T05:23:00;10.4;;;9.3;;
68319;SDS011;55168;51.120;17.024;2023-07-09T05:24:00;10.4;;;9.3;;
68319;SDS011;55168;51.120;17.024;2023-07-09T05:25:00;10.4;;;9.3;;
68319;SDS011;55168;51.120;17.024;2023-07-09T05:26:01;10.3;;;9.2;;
68319;SDS011;55168;51.120;17.024;2023-07-09T05:27:00;10.3;;;9.2;;
68319;SDS011;55168;51.120;17.024;2023-07-09T05:28:00;10.3;;;9.2;;
68319;SDS011;55168;51.120;17.024;2023-07-09T05:29:02;10.3;;;9.2;;
68319;SDS011;55168;51.120;17.024;2023-07-09T05:30:00;10.3;;;9.2;;
68319;SDS011;55168;51.120;17.024;2023-07-09T05:31:00;10.5;;;9.1;;
68319;SDS011;55168;51.120;17.024;2023-07-09T05:32:00;10.5;;;9.1;;
68319;SDS011;55168;51.120;17.024;2023-07-09T05:33:00;10.5;;;9.1;;
68319;SDS011;55168;51.120;17.024;2023-07-09T05:34:00;10.5;;;9.1;;
68319;SDS011;55168;51.120;17.024;2023-07-09T05:35:00;10.5;;;9.1;;
68319;SDS011;55168;51.120;17.024;2023-07-09T05:36:00;11.7;;;9.5;;
68319;SDS011;55168;51.120;17.024;2023-07-09T05:37:00;11.7;;;9.5;;
68319;SDS011;55168;51.120;17.024;2023-07-09T05:38:00;11.7;;;9.5;;
68319;SDS011;55168;51.120;17.024;2023-07-09T05:39:00;11.7;;;9.5;;
68319;SDS011;55168;51.120;17.024;2023-07-09T05:40:00;11.7;;;9.5;;
68319;SDS011;55168;51.120;17.024;2023-07-09T05:41:01;11.5;;;9.3;;
68319;SDS011;55168;51.120;17.024;2023-07-09T05:42:00;11.5;;;9.3;;
68319;SDS011;55168;51.120;17.024;2023-07-09T05:43:00;11.5;;;9.3;;
68319;SDS011;55168;51.120;17.024;2023-07-09T05:44:00;11.5;;;9.3;;
68319;SDS011;55168;51.120;17.024;2023-07-09T05:45:00;11.5;;;9.3;;
68319;SDS011;55168;51.120;17.024;2023-07-09T05:46:01;10.6;;;9.4;;
68319;SDS011;55168;51.120;17.024;2023-07-09T05:47:00;10.6;;;9.4;;
68319;SDS011;55168;51.120;17.024;2023-07-09T05:48:00;10.6;;;9.4;;
68319;SDS011;55168;51.120;17.024;2023-07-09T05:49:00;10.6;;;9.4;;
68319;SDS011;55168;51.120;17.024;2023-07-09T05:50:00;10.6;;;9.4;;
68319;SDS011;55168;51.120;17.024;2023-07-09T05:51:00;11.7;;;10.0;;
68319;SDS011;55168;51.120;17.024;2023-07-09T05:52:00;11.7;;;10.0;;
68319;SDS011;55168;51.120;17.024;2023-07-09T05:53:00;11.7;;;10.0;;
68319;SDS011;55168;51.120;17.024;2023-07-09T05:54:00;11.7;;;10.0;;
68319;SDS011;55168;51.120;17.024;2023-07-09T05:55:00;11.7;;;10.0;;
68319;SDS011;55168;51.120;17.024;2023-07-09T05:56:00;11.4;;;9.3;;
68319;SDS011;55168;51.120;17.024;2023-07-09T05:57:00;11.4;;;9.3;;
68319;SDS011;55168;51.120;17.024;2023-07-09T05:58:00;11.4;;;9.3;;
68319;SDS011;55168;51.120;17.024;2023-07-09T05:59:01;11.4;;;9.3;;
68319;SDS011;55168;51.120;17.024;2023-07-09T06:00:00;11.4;;;9.3;;
68319;SDS011;55168;51.120;17.024;2023-07-09T06:01:00;10.5;;;9.4;;